Time;durP1;ratioP1;P1;durP2;ratioP2;P2;SDS_P1;SDS_P2;PMS_P1;PMS_P2;Temp;Humidity;BMP_temperature;BMP_pressure;BME280_temperature;BME280_humidity;BME280_pressure;Samples;Min_cycle;Max_cycle;Signal;HPM_P1;HPM_P2
2021/05/28 00:00:45;;;;;;;7.47;2.80;;;;;;;6.37;93.74;97197.03;4982770;28;20507;-62
2021/05/28 00:03:11;;;;;;;3.40;2.58;;;;;;;6.36;93.43;97195.47;4976742;28;20112;-62
2021/05/28 00:05:36;;;;;;;3.25;2.58;;;;;;;6.31;93.67;97207.31;4971922;28;20508;-62
2021/05/28 00:08:02;;;;;;;5.30;2.75;;;;;;;6.28;93.20;97207.97;4959811;28;20514;-60
2021/05/28 00:10:28;;;;;;;4.10;2.83;;;;;;;6.20;93.95;97206.09;4959277;28;20038;-61
2021/05/28 00:12:54;;;;;;;4.60;2.88;;;;;;;6.19;93.71;97199.03;4977548;28;20146;-62
2021/05/28 00:15:19;;;;;;;4.47;2.67;;;;;;;6.15;93.50;97200.81;4953172;28;20142;-63
2021/05/28 00:17:45;;;;;;;4.35;2.50;;;;;;;5.86;92.52;97202.31;4963054;28;20043;-64
2021/05/28 00:20:12;;;;;;;3.40;2.42;;;;;;;5.66;92.71;97203.00;4966880;28;20054;-62
2021/05/28 00:22:39;;;;;;;7.18;2.67;;;;;;;5.60;93.23;97196.09;4981087;28;20050;-63
2021/05/28 00:25:05;;;;;;;5.97;2.53;;;;;;;5.62;94.00;97202.84;4977048;28;20133;-61
2021/05/28 00:27:30;;;;;;;6.05;2.45;;;;;;;5.63;94.23;97207.13;4980692;28;20046;-62
2021/05/28 00:29:59;;;;;;;3.47;2.45;;;;;;;5.60;94.36;97206.97;4980756;28;20034;-63
2021/05/28 00:32:25;;;;;;;3.80;2.83;;;;;;;5.64;94.41;97208.75;4970491;28;20217;-64
2021/05/28 00:34:50;;;;;;;5.40;2.67;;;;;;;5.74;94.61;97213.03;4978812;28;20523;-63
2021/05/28 00:37:17;;;;;;;4.28;3.03;;;;;;;5.81;94.21;97207.13;4969276;28;20046;-63
2021/05/28 00:39:42;;;;;;;7.53;4.05;;;;;;;5.79;94.08;97207.44;4981473;28;20049;-63
2021/05/28 00:42:08;;;;;;;5.70;2.95;;;;;;;5.79;93.66;97217.50;4976572;28;20476;-62
2021/05/28 00:44:33;;;;;;;5.22;3.10;;;;;;;5.74;93.72;97215.75;4981477;28;20049;-61
2021/05/28 00:46:59;;;;;;;3.75;2.90;;;;;;;5.77;94.09;97212.41;4981514;28;20050;-62
2021/05/28 00:49:24;;;;;;;4.68;2.80;;;;;;;5.77;94.30;97211.59;4982320;28;20046;-63
2021/05/28 00:51:50;;;;;;;3.53;2.50;;;;;;;5.72;93.89;97216.06;4972310;28;20051;-60
2021/05/28 00:54:16;;;;;;;4.25;3.20;;;;;;;5.61;93.75;97214.03;4956771;28;20064;-61
2021/05/28 00:56:41;;;;;;;4.07;2.78;;;;;;;5.61;93.92;97217.53;4967329;28;20523;-61
2021/05/28 00:59:08;;;;;;;3.83;2.47;;;;;;;5.69;93.67;97216.75;4975867;28;20038;-60
2021/05/28 01:01:34;;;;;;;4.55;2.60;;;;;;;5.66;93.71;97219.28;4979755;28;20049;-61
2021/05/28 01:04:00;;;;;;;5.45;3.13;;;;;;;5.47;93.22;97220.41;4983708;28;20042;-60
2021/05/28 01:06:26;;;;;;;6.68;2.80;;;;;;;5.43;93.21;97224.91;4977645;28;20062;-62
2021/05/28 01:08:55;;;;;;;8.57;3.15;;;;;;;5.46;93.83;97218.03;4974408;28;20054;-61
2021/05/28 01:11:22;;;;;;;4.13;2.45;;;;;;;5.49;93.79;97220.09;4957054;28;20038;-63
2021/05/28 01:13:47;;;;;;;3.63;2.30;;;;;;;5.40;92.88;97222.81;4960708;28;20381;-63
2021/05/28 01:16:13;;;;;;;4.05;2.30;;;;;;;5.36;93.29;97224.56;4966414;28;20045;-63
2021/05/28 01:18:39;;;;;;;3.70;2.40;;;;;;;5.40;93.60;97222.03;4980230;28;20960;-63
2021/05/28 01:21:04;;;;;;;2.42;2.20;;;;;;;5.52;93.75;97225.69;4971374;28;20042;-61
2021/05/28 01:23:30;;;;;;;4.57;2.67;;;;;;;5.61;93.22;97227.59;4961738;28;20042;-62
2021/05/28 01:25:55;;;;;;;7.50;2.25;;;;;;;5.63;93.05;97223.44;4980501;28;20056;-61
2021/05/28 01:28:21;;;;;;;4.25;2.63;;;;;;;5.62;93.13;97219.13;4968733;28;20403;-62
2021/05/28 01:30:46;;;;;;;3.08;2.08;;;;;;;5.63;92.83;97215.28;4981800;28;20153;-62
2021/05/28 01:33:12;;;;;;;4.13;2.20;;;;;;;5.49;92.79;97222.81;4976915;28;20510;-61
2021/05/28 01:35:37;;;;;;;3.25;2.85;;;;;;;5.45;93.16;97214.50;4979013;28;20050;-62
2021/05/28 01:38:05;;;;;;;5.88;2.20;;;;;;;5.51;93.46;97223.28;4976352;28;20054;-61
2021/05/28 01:40:30;;;;;;;4.28;2.28;;;;;;;5.52;93.19;97219.47;4977900;28;20081;-63
2021/05/28 01:42:56;;;;;;;3.67;2.30;;;;;;;5.48;92.48;97211.16;4978721;28;20077;-62
2021/05/28 01:45:21;;;;;;;3.88;2.47;;;;;;;5.35;92.55;97212.91;4964737;28;20493;-62
2021/05/28 01:47:47;;;;;;;6.70;2.50;;;;;;;5.19;92.34;97200.94;4977952;28;20376;-62
2021/05/28 01:50:14;;;;;;;4.70;2.58;;;;;;;5.09;92.98;97195.81;4974391;28;20080;-61
2021/05/28 01:52:40;;;;;;;4.22;2.40;;;;;;;5.01;93.60;97208.28;4978897;28;20042;-60
2021/05/28 01:55:08;;;;;;;2.42;1.83;;;;;;;4.99;93.35;97202.38;4971209;28;20046;-62
2021/05/28 01:57:33;;;;;;;3.65;2.38;;;;;;;4.87;93.25;97202.19;4974915;28;20054;-63
2021/05/28 01:59:59;;;;;;;7.65;3.78;;;;;;;4.88;93.87;97193.72;4988641;28;20096;-63
2021/05/28 02:02:24;;;;;;;3.10;2.08;;;;;;;4.71;93.99;97191.75;4974830;28;20046;-63
2021/05/28 02:04:50;;;;;;;3.30;2.40;;;;;;;4.58;93.63;97190.78;4976852;28;20042;-62
2021/05/28 02:07:15;;;;;;;4.43;2.30;;;;;;;4.58;94.09;97198.91;4973994;28;20092;-64
2021/05/28 02:09:40;;;;;;;3.70;2.58;;;;;;;4.60;94.73;97196.69;4996404;28;20047;-63
2021/05/28 02:12:06;;;;;;;3.00;2.00;;;;;;;4.66;94.94;97193.81;4971273;28;20043;-61
2021/05/28 02:14:31;;;;;;;4.88;2.50;;;;;;;4.62;95.14;97193.66;4984799;28;20067;-63
2021/05/28 02:16:57;;;;;;;4.70;2.88;;;;;;;4.67;95.00;97198.94;4985566;28;20050;-63
2021/05/28 02:19:23;;;;;;;4.35;2.38;;;;;;;4.82;95.02;97188.75;4980509;28;20053;-62
2021/05/28 02:21:50;;;;;;;4.93;2.15;;;;;;;4.70;94.81;97197.50;4985523;28;20045;-62
2021/05/28 02:24:16;;;;;;;2.75;2.15;;;;;;;4.62;94.87;97199.09;4977086;28;20129;-63
2021/05/28 02:26:45;;;;;;;2.53;2.10;;;;;;;4.65;94.88;97198.47;4986100;28;20053;-63
2021/05/28 02:29:11;;;;;;;10.93;2.42;;;;;;;4.74;95.08;97198.50;4974265;28;20190;-60
2021/05/28 02:31:37;;;;;;;6.05;2.58;;;;;;;4.76;94.98;97197.03;4963076;28;20057;-63
2021/05/28 02:34:03;;;;;;;4.32;3.15;;;;;;;4.66;95.16;97197.34;4978212;28;20503;-60
2021/05/28 02:36:28;;;;;;;3.25;2.22;;;;;;;4.58;94.68;97195.41;4979515;28;20052;-61
2021/05/28 02:38:53;;;;;;;3.05;2.35;;;;;;;4.47;94.55;97194.91;4971415;28;20039;-63
2021/05/28 02:41:19;;;;;;;3.30;2.25;;;;;;;4.42;94.53;97197.75;4980269;28;20480;-63
2021/05/28 02:43:44;;;;;;;3.17;2.28;;;;;;;4.51;94.70;97192.38;4986481;28;20049;-63
2021/05/28 02:46:10;;;;;;;6.05;3.33;;;;;;;4.48;94.51;97188.34;4975850;28;20392;-62
2021/05/28 02:48:35;;;;;;;7.47;2.47;;;;;;;4.33;93.64;97194.22;4983570;28;20042;-60
2021/05/28 02:51:01;;;;;;;4.43;2.30;;;;;;;4.38;94.51;97184.03;4988771;28;20450;-62
2021/05/28 02:53:32;;;;;;;3.28;2.20;;;;;;;4.50;94.18;97188.03;4957622;28;20491;-60
2021/05/28 02:55:58;;;;;;;3.30;1.77;;;;;;;4.60;94.06;97185.84;4975703;28;20046;-59
2021/05/28 02:58:23;;;;;;;3.15;2.22;;;;;;;4.42;93.84;97192.34;4970105;28;20723;-59
2021/05/28 03:00:49;;;;;;;3.17;2.25;;;;;;;4.28;93.81;97197.06;4982694;28;20443;-61
2021/05/28 03:03:14;;;;;;;3.03;2.10;;;;;;;4.29;94.10;97198.69;4969657;28;20042;-60
2021/05/28 03:05:40;;;;;;;3.35;1.88;;;;;;;4.40;94.69;97200.00;4974861;28;20051;-61
2021/05/28 03:08:05;;;;;;;5.32;2.40;;;;;;;4.39;94.80;97198.38;4981600;28;20080;-61
2021/05/28 03:10:30;;;;;;;6.20;2.85;;;;;;;4.44;94.88;97206.38;4989826;28;20046;-62
2021/05/28 03:12:56;;;;;;;2.78;2.10;;;;;;;4.37;94.02;97206.81;4991811;28;20069;-62
2021/05/28 03:15:22;;;;;;;3.58;2.30;;;;;;;4.46;94.83;97208.78;4986325;28;20058;-61
2021/05/28 03:17:47;;;;;;;4.07;2.22;;;;;;;4.55;94.36;97206.88;4975216;28;20583;-61
2021/05/28 03:20:19;;;;;;;7.18;2.60;;;;;;;4.55;93.91;97199.53;4979568;28;20046;-63
2021/05/28 03:22:45;;;;;;;3.30;2.17;;;;;;;4.53;93.29;97207.19;4974387;28;20047;-60
2021/05/28 03:25:12;;;;;;;2.67;2.20;;;;;;;4.51;93.28;97203.22;4977498;28;20053;-60
2021/05/28 03:27:39;;;;;;;4.43;2.28;;;;;;;4.50;93.30;97196.19;4982604;28;20043;-59
2021/05/28 03:30:06;;;;;;;2.28;1.85;;;;;;;4.58;93.10;97198.91;4967687;28;20507;-61
2021/05/28 03:32:32;;;;;;;3.45;2.38;;;;;;;4.62;92.81;97193.66;4974592;28;20047;-62
2021/05/28 03:34:58;;;;;;;3.78;2.40;;;;;;;4.63;92.45;97189.03;4974562;28;20163;-61
2021/05/28 03:37:27;;;;;;;2.53;2.17;;;;;;;4.57;92.57;97194.63;4974692;28;20050;-60
2021/05/28 03:39:52;;;;;;;5.07;2.10;;;;;;;4.58;92.89;97196.22;4982811;28;20113;-61
2021/05/28 03:42:19;;;;;;;2.58;2.10;;;;;;;4.64;93.02;97202.28;4988946;28;20495;-61
2021/05/28 03:44:46;;;;;;;2.45;2.00;;;;;;;4.70;92.45;97192.06;4982418;28;20064;-60
2021/05/28 03:47:11;;;;;;;4.15;2.10;;;;;;;4.76;92.56;97199.75;4970104;28;20039;-59
2021/05/28 03:49:39;;;;;;;3.58;2.33;;;;;;;4.78;92.41;97191.31;4982968;28;20053;-61
2021/05/28 03:52:05;;;;;;;3.50;2.25;;;;;;;4.90;92.41;97177.13;4972985;28;20053;-62
2021/05/28 03:54:30;;;;;;;2.80;2.03;;;;;;;4.99;91.70;97183.34;4979589;28;20077;-62
2021/05/28 03:56:55;;;;;;;3.17;2.00;;;;;;;5.00;91.12;97189.59;4981248;28;20118;-60
2021/05/28 03:59:21;;;;;;;3.00;2.30;;;;;;;5.00;90.60;97186.88;4976964;28;20041;-62
2021/05/28 04:01:47;;;;;;;2.45;2.00;;;;;;;4.97;91.21;97180.16;4975330;28;20039;-62
2021/05/28 04:04:13;;;;;;;6.68;3.13;;;;;;;5.07;90.94;97176.34;4976251;28;20046;-60
2021/05/28 04:06:38;;;;;;;4.47;2.15;;;;;;;5.16;90.37;97180.63;4974661;28;20408;-61
2021/05/28 04:09:04;;;;;;;4.63;2.90;;;;;;;5.18;90.29;97183.03;4977804;28;20051;-62
2021/05/28 04:11:30;;;;;;;8.77;5.18;;;;;;;5.30;90.33;97182.41;4982661;28;20160;-61
2021/05/28 04:13:55;;;;;;;4.72;3.00;;;;;;;5.39;89.56;97182.41;4982581;28;20614;-60
2021/05/28 04:16:20;;;;;;;3.88;2.30;;;;;;;5.61;89.00;97181.41;4971844;28;20108;-60
2021/05/28 04:18:46;;;;;;;3.88;2.72;;;;;;;5.74;88.61;97183.13;4981010;28;20054;-60
2021/05/28 04:21:11;;;;;;;4.72;2.20;;;;;;;5.71;88.04;97186.53;4974451;28;20125;-61
2021/05/28 04:23:37;;;;;;;3.90;2.50;;;;;;;5.69;88.21;97186.84;4975783;28;20046;-60
2021/05/28 04:26:03;;;;;;;3.22;2.20;;;;;;;5.88;87.67;97185.69;4973577;28;20042;-61
2021/05/28 04:28:29;;;;;;;6.60;2.15;;;;;;;6.01;87.17;97175.75;4971122;28;20824;-60
2021/05/28 04:30:55;;;;;;;3.13;2.53;;;;;;;6.14;86.83;97174.75;4979118;28;20054;-61
2021/05/28 04:33:21;;;;;;;3.33;2.25;;;;;;;6.25;86.87;97177.91;4957307;28;20046;-61
2021/05/28 04:35:47;;;;;;;3.10;1.98;;;;;;;6.36;86.16;97172.91;4975426;28;20046;-62
2021/05/28 04:38:12;;;;;;;3.78;2.20;;;;;;;6.48;86.25;97168.34;4966273;28;20081;-60
2021/05/28 04:40:38;;;;;;;3.10;2.45;;;;;;;6.63;86.46;97177.09;4975304;28;20043;-62
2021/05/28 04:43:04;;;;;;;3.55;2.45;;;;;;;6.78;85.37;97176.50;4965656;28;20073;-60
2021/05/28 04:45:30;;;;;;;4.55;2.28;;;;;;;6.96;84.58;97181.84;4982051;28;20070;-61
2021/05/28 04:47:55;;;;;;;5.15;2.28;;;;;;;7.23;84.14;97172.34;4981963;28;20042;-61
2021/05/28 04:50:30;;;;;;;6.47;2.13;;;;;;;7.39;82.75;97172.53;4976950;28;20516;-62
2021/05/28 04:52:56;;;;;;;7.30;2.40;;;;;;;7.26;84.79;97174.41;4973943;28;20116;-59
2021/05/28 04:55:21;;;;;;;5.88;2.22;;;;;;;8.08;82.56;97178.41;4970529;28;20279;-62
2021/05/28 04:57:47;;;;;;;3.03;1.95;;;;;;;10.30;77.30;97179.47;4984532;28;20450;-61
2021/05/28 05:00:13;;;;;;;2.55;1.42;;;;;;;12.04;68.69;97169.16;4975716;28;20133;-61
2021/05/28 05:02:38;;;;;;;1.80;1.23;;;;;;;12.86;64.03;97166.19;4974305;28;20138;-63
2021/05/28 05:05:04;;;;;;;2.15;1.20;;;;;;;14.13;60.00;97174.81;4959132;28;20492;-60
2021/05/28 05:07:30;;;;;;;2.25;1.20;;;;;;;15.55;57.09;97167.97;4963638;28;20071;-62
2021/05/28 05:09:55;;;;;;;6.90;3.60;;;;;;;15.53;52.81;97162.06;4981003;28;20437;-61
2021/05/28 05:12:21;;;;;;;3.53;1.55;;;;;;;13.39;61.00;97165.34;4964987;28;21629;-61
2021/05/28 05:14:46;;;;;;;2.72;1.38;;;;;;;13.63;60.86;97160.53;4982532;28;20439;-61
2021/05/28 05:17:12;;;;;;;3.42;1.20;;;;;;;13.68;61.64;97173.94;4970146;28;20038;-61
2021/05/28 05:19:37;;;;;;;3.42;1.48;;;;;;;13.80;61.58;97167.41;4982126;28;20050;-61
2021/05/28 05:22:02;;;;;;;4.85;1.20;;;;;;;14.11;60.49;97175.19;4974296;28;20058;-60
2021/05/28 05:24:28;;;;;;;1.52;1.00;;;;;;;14.95;56.23;97171.22;4974060;28;20105;-61
2021/05/28 05:26:54;;;;;;;1.63;1.23;;;;;;;13.04;62.76;97171.16;4982524;28;20391;-60
2021/05/28 05:29:19;;;;;;;4.05;1.33;;;;;;;13.37;62.55;97175.94;4976678;28;20066;-60
2021/05/28 05:31:45;;;;;;;4.65;1.40;;;;;;;14.79;60.49;97164.00;4981190;28;20057;-62
2021/05/28 05:34:10;;;;;;;2.55;1.25;;;;;;;13.89;57.62;97174.19;4972834;28;20046;-59
2021/05/28 05:36:39;;;;;;;4.72;1.10;;;;;;;14.27;57.77;97171.44;4976257;28;20462;-62
2021/05/28 05:39:05;;;;;;;1.83;1.20;;;;;;;12.35;64.83;97172.84;4972080;28;20207;-61
2021/05/28 05:41:30;;;;;;;4.68;1.55;;;;;;;11.40;67.83;97170.66;4980707;28;20559;-60
2021/05/28 05:43:56;;;;;;;2.47;1.20;;;;;;;12.62;63.49;97170.94;4981177;28;20034;-59
2021/05/28 05:46:21;;;;;;;2.33;1.17;;;;;;;13.24;63.01;97172.59;4979237;28;20531;-63
2021/05/28 05:48:47;;;;;;;3.28;1.20;;;;;;;12.90;62.71;97172.50;4984993;28;20133;-62
2021/05/28 05:51:12;;;;;;;2.80;1.30;;;;;;;13.83;59.22;97181.22;4979446;28;20141;-61
2021/05/28 05:53:37;;;;;;;4.28;1.27;;;;;;;13.68;59.48;97182.22;4975318;28;20779;-62
2021/05/28 05:56:03;;;;;;;6.55;2.75;;;;;;;13.75;59.53;97185.84;4971488;28;20069;-62
2021/05/28 05:58:28;;;;;;;1.92;1.20;;;;;;;14.70;58.53;97180.88;4961829;28;20138;-62
2021/05/28 06:00:54;;;;;;;2.47;1.38;;;;;;;14.97;54.75;97185.41;4963629;28;20046;-62
2021/05/28 06:03:19;;;;;;;4.07;1.38;;;;;;;15.21;54.78;97189.50;4960828;28;20072;-62
2021/05/28 06:05:45;;;;;;;11.98;5.00;;;;;;;13.83;59.13;97189.47;4972399;28;20042;-62
2021/05/28 06:08:10;;;;;;;3.03;1.20;;;;;;;15.35;55.14;97188.78;4969600;28;20487;-61
2021/05/28 06:10:36;;;;;;;3.65;1.23;;;;;;;15.68;54.02;97196.03;4977505;28;20081;-61
2021/05/28 06:13:07;;;;;;;5.60;1.48;;;;;;;17.52;48.23;97188.66;4979618;28;20073;-62
2021/05/28 06:15:34;;;;;;;3.47;1.10;;;;;;;16.85;49.52;97198.69;4977809;28;20038;-61
2021/05/28 06:18:00;;;;;;;2.35;1.15;;;;;;;18.64;45.09;97194.44;4982429;28;20046;-61
2021/05/28 06:20:25;;;;;;;6.13;1.25;;;;;;;17.61;47.13;97196.56;4978242;28;20711;-62
2021/05/28 06:22:50;;;;;;;8.10;1.25;;;;;;;17.99;47.08;97194.84;4983122;28;20518;-62
2021/05/28 06:25:16;;;;;;;6.00;3.03;;;;;;;19.73;44.49;97193.00;4975531;28;20129;-62
2021/05/28 06:27:42;;;;;;;6.15;2.30;;;;;;;20.71;39.91;97196.06;4977941;28;20049;-63
2021/05/28 06:30:08;;;;;;;2.33;1.25;;;;;;;19.75;42.13;97200.94;4959056;28;20053;-63
2021/05/28 06:32:34;;;;;;;8.63;3.10;;;;;;;17.34;48.48;97203.38;4971077;28;20129;-62
2021/05/28 06:35:00;;;;;;;3.78;1.33;;;;;;;17.82;50.30;97204.78;4974424;28;20038;-62
2021/05/28 06:37:25;;;;;;;4.72;2.30;;;;;;;18.94;44.68;97199.34;4959027;28;20051;-61
2021/05/28 06:39:51;;;;;;;8.32;2.97;;;;;;;17.04;48.75;97206.56;4980280;28;20116;-62
2021/05/28 06:42:16;;;;;;;3.15;1.60;;;;;;;18.43;46.24;97198.94;4969430;28;20038;-62
2021/05/28 06:44:42;;;;;;;6.88;1.45;;;;;;;21.45;39.24;97202.75;4995900;28;20050;-62
2021/05/28 06:47:07;;;;;;;2.78;1.50;;;;;;;22.46;36.20;97207.88;4974849;28;20031;-62
2021/05/28 06:49:32;;;;;;;3.80;1.20;;;;;;;22.76;35.69;97213.56;4983780;28;20053;-63
2021/05/28 06:51:58;;;;;;;4.32;1.20;;;;;;;22.20;36.50;97206.84;4982214;28;20517;-62
2021/05/28 06:54:23;;;;;;;1.48;0.93;;;;;;;19.28;42.89;97212.53;4969628;28;20980;-63
2021/05/28 06:56:48;;;;;;;3.28;1.00;;;;;;;21.72;38.81;97209.00;4974795;28;20105;-63
2021/05/28 06:59:14;;;;;;;2.63;0.90;;;;;;;21.70;38.32;97211.44;4978959;28;20034;-62
2021/05/28 07:01:39;;;;;;;3.85;2.47;;;;;;;19.24;43.81;97212.56;4975761;28;20109;-63
2021/05/28 07:04:05;;;;;;;2.67;1.38;;;;;;;21.39;39.05;97214.41;4972010;28;20042;-62
2021/05/28 07:06:32;;;;;;;6.60;3.90;;;;;;;18.85;44.58;97208.19;4997675;28;20038;-62
2021/05/28 07:08:57;;;;;;;2.55;1.40;;;;;;;21.65;39.82;97205.59;4980568;28;20444;-63
2021/05/28 07:11:24;;;;;;;4.35;1.50;;;;;;;23.21;34.67;97210.09;4969998;28;20124;-62
2021/05/28 07:13:49;;;;;;;3.30;1.00;;;;;;;22.60;37.16;97209.56;4980746;28;20096;-62
2021/05/28 07:16:15;;;;;;;6.63;1.48;;;;;;;21.68;36.88;97199.13;4974389;28;20125;-62
2021/05/28 07:18:40;;;;;;;3.60;1.83;;;;;;;18.21;44.36;97212.16;4973862;28;20047;-62
2021/05/28 07:21:06;;;;;;;3.60;1.55;;;;;;;17.58;47.14;97217.53;4978467;28;20065;-62
2021/05/28 07:23:32;;;;;;;4.82;1.10;;;;;;;19.59;42.64;97209.81;4980862;28;20057;-62
2021/05/28 07:25:59;;;;;;;2.17;0.90;;;;;;;22.37;36.39;97204.91;4975020;28;20504;-61
2021/05/28 07:28:25;;;;;;;5.38;1.00;;;;;;;22.41;36.66;97207.59;4970938;28;20492;-62
2021/05/28 07:30:51;;;;;;;5.32;1.10;;;;;;;24.16;34.20;97195.91;4971278;28;20054;-61
2021/05/28 07:33:17;;;;;;;1.58;1.13;;;;;;;22.36;37.56;97208.88;4967815;28;20057;-62
2021/05/28 07:35:42;;;;;;;3.35;1.13;;;;;;;23.67;35.81;97199.69;4975557;28;20038;-61
2021/05/28 07:38:08;;;;;;;2.28;1.20;;;;;;;24.43;33.63;97201.88;4961223;28;20509;-62
2021/05/28 07:40:34;;;;;;;1.75;1.00;;;;;;;23.48;34.89;97207.00;4982838;28;20038;-62
2021/05/28 07:43:00;;;;;;;2.88;0.98;;;;;;;24.52;32.48;97200.41;4982220;28;20514;-62
2021/05/28 07:45:25;;;;;;;4.68;1.15;;;;;;;24.66;32.43;97197.19;4977142;28;20047;-60
2021/05/28 07:47:51;;;;;;;2.33;0.95;;;;;;;25.00;31.47;97202.06;4977710;28;20144;-62
2021/05/28 07:50:16;;;;;;;2.28;0.82;;;;;;;24.92;31.22;97200.75;4962254;28;20045;-62
2021/05/28 07:52:42;;;;;;;6.57;1.65;;;;;;;24.40;32.81;97199.97;4971153;28;20043;-62
2021/05/28 07:55:09;;;;;;;4.85;1.23;;;;;;;23.98;33.57;97205.59;4951023;28;20562;-62
2021/05/28 07:57:34;;;;;;;2.83;1.10;;;;;;;23.75;33.65;97200.25;4986048;28;20442;-60
2021/05/28 07:59:59;;;;;;;3.88;1.05;;;;;;;22.37;36.74;97199.31;4982558;28;20154;-58
2021/05/28 08:02:25;;;;;;;5.05;2.05;;;;;;;22.26;36.34;97199.56;4972400;28;20080;-61
2021/05/28 08:04:51;;;;;;;4.68;1.95;;;;;;;21.62;37.79;97198.06;4969421;28;20053;-60
2021/05/28 08:07:16;;;;;;;4.57;1.13;;;;;;;21.13;40.21;97190.19;4957962;28;20067;-61
2021/05/28 08:09:42;;;;;;;3.20;1.35;;;;;;;21.24;38.83;97201.94;4981563;28;20089;-60
2021/05/28 08:12:07;;;;;;;1.60;1.10;;;;;;;20.73;42.08;97198.44;4974924;28;20104;-60
2021/05/28 08:14:33;;;;;;;6.43;2.05;;;;;;;20.46;42.40;97201.97;4984163;28;20050;-61
2021/05/28 08:16:59;;;;;;;4.05;1.52;;;;;;;20.49;42.40;97190.03;4983847;28;20463;-60
2021/05/28 08:19:24;;;;;;;5.70;1.80;;;;;;;20.38;43.66;97204.09;4977091;28;20119;-61
2021/05/28 08:21:50;;;;;;;3.10;1.50;;;;;;;19.37;46.03;97201.72;4963507;28;20039;-60
2021/05/28 08:24:15;;;;;;;8.80;1.60;;;;;;;19.71;45.60;97200.19;4958953;28;20043;-61
2021/05/28 08:26:41;;;;;;;3.22;1.75;;;;;;;19.46;45.99;97201.22;4981169;28;20080;-61
2021/05/28 08:29:08;;;;;;;4.57;1.55;;;;;;;19.87;46.25;97194.84;4975323;28;20069;-61
2021/05/28 08:31:34;;;;;;;15.38;2.70;;;;;;;19.04;47.49;97195.69;4979920;28;20035;-62
2021/05/28 08:33:59;;;;;;;2.35;1.55;;;;;;;18.49;48.34;97199.28;4981491;28;20042;-63
2021/05/28 08:36:25;;;;;;;5.10;1.90;;;;;;;18.31;50.61;97196.63;4975765;28;20590;-62
2021/05/28 08:38:50;;;;;;;3.10;1.55;;;;;;;18.77;47.86;97197.50;4981887;28;20132;-60
2021/05/28 08:41:16;;;;;;;6.57;2.30;;;;;;;19.29;47.88;97197.47;4976080;28;20138;-60
2021/05/28 08:43:42;;;;;;;3.13;1.90;;;;;;;19.10;47.72;97196.84;4981722;28;20057;-61
2021/05/28 08:46:08;;;;;;;3.47;1.85;;;;;;;19.32;46.93;97193.06;4978463;28;20053;-60
2021/05/28 08:48:34;;;;;;;4.07;2.03;;;;;;;19.04;47.13;97192.94;4978370;28;20042;-60
2021/05/28 08:50:59;;;;;;;5.72;2.00;;;;;;;18.75;47.29;97208.22;4965300;28;20046;-61
2021/05/28 08:53:27;;;;;;;4.32;1.70;;;;;;;18.51;48.83;97196.88;4956759;28;20074;-62
2021/05/28 08:55:53;;;;;;;4.60;2.38;;;;;;;18.87;48.40;97194.69;4979018;28;20049;-62
2021/05/28 08:58:20;;;;;;;4.78;2.05;;;;;;;18.44;48.63;97208.84;4973013;28;20583;-61
2021/05/28 09:00:47;;;;;;;4.10;1.92;;;;;;;18.01;50.80;97209.09;4977500;28;20434;-61
2021/05/28 09:03:24;;;;;;;4.50;2.42;;;;;;;17.91;50.20;97209.94;4977583;28;20042;-61
2021/05/28 09:05:51;;;;;;;5.13;2.03;;;;;;;18.14;49.63;97198.31;4982998;28;20046;-60
2021/05/28 09:08:24;;;;;;;11.55;3.78;;;;;;;18.45;49.24;97204.06;4970232;28;20034;-60
2021/05/28 09:10:50;;;;;;;5.20;2.13;;;;;;;18.79;46.84;97195.13;4981134;28;20041;-59
2021/05/28 09:13:25;;;;;;;4.28;1.35;;;;;;;18.66;47.41;97198.38;4970288;28;20034;-59
2021/05/28 09:16:12;;;;;;;6.00;2.25;;;;;;;17.93;50.67;97194.50;4975142;28;20100;-60
2021/05/28 09:18:50;;;;;;;7.20;2.17;;;;;;;18.39;47.35;97198.19;4980488;28;20042;-59
2021/05/28 09:21:34;;;;;;;3.25;1.77;;;;;;;18.51;47.38;97192.16;4975590;28;20499;-60
2021/05/28 09:24:01;;;;;;;3.42;1.63;;;;;;;18.96;46.31;97183.09;4980268;28;20038;-61
2021/05/28 09:26:28;;;;;;;7.80;1.70;;;;;;;19.31;45.05;97180.38;4975424;28;20077;-60
2021/05/28 09:28:55;;;;;;;5.97;2.03;;;;;;;19.31;44.82;97181.16;4978163;28;20081;-59
2021/05/28 09:31:25;;;;;;;7.60;2.30;;;;;;;19.45;43.44;97177.47;4967989;28;20129;-59
2021/05/28 09:33:53;;;;;;;3.63;1.65;;;;;;;19.06;43.86;97181.41;4971315;28;20133;-60
2021/05/28 09:36:26;;;;;;;2.72;1.50;;;;;;;18.67;47.35;97190.84;4973936;28;20039;-60
2021/05/28 09:38:59;;;;;;;5.80;3.28;;;;;;;18.79;45.50;97176.47;4976483;28;20058;-60
2021/05/28 09:41:49;;;;;;;8.30;2.65;;;;;;;18.98;45.33;97177.13;4963153;28;20034;-60
2021/05/28 09:44:20;;;;;;;4.57;2.60;;;;;;;19.25;43.50;97168.94;4957024;28;20054;-60
2021/05/28 09:47:07;;;;;;;4.55;1.50;;;;;;;19.82;42.41;97171.06;4961623;28;20523;-60
2021/05/28 09:49:37;;;;;;;5.60;1.88;;;;;;;19.21;43.95;97177.31;4961162;28;20037;-59
2021/05/28 09:52:07;;;;;;;4.35;1.40;;;;;;;19.21;43.62;97160.66;4958463;28;20114;-61
2021/05/28 09:54:32;;;;;;;;;;;;;;;18.98;44.85;97166.81;4961710;28;20129;-61
2021/05/28 09:56:58;;;;;;;3.22;1.42;;;;;;;19.67;43.69;97156.53;4961426;28;20008;-61
2021/05/28 09:59:23;;;;;;;4.65;1.77;;;;;;;19.89;42.62;97152.72;4974671;28;20042;-61
2021/05/28 10:02:01;;;;;;;3.40;1.30;;;;;;;19.65;42.19;97147.06;4978864;28;20455;-61
2021/05/28 10:04:27;;;;;;;6.57;1.50;;;;;;;19.88;42.71;97151.16;4975678;28;20046;-62
2021/05/28 10:06:53;;;;;;;4.05;1.38;;;;;;;20.26;41.29;97149.03;4980741;28;20152;-62
2021/05/28 10:09:19;;;;;;;4.03;1.77;;;;;;;19.75;42.97;97148.91;4975620;28;20046;-61
2021/05/28 10:11:44;;;;;;;6.68;2.47;;;;;;;19.82;42.82;97146.03;4980939;28;20419;-60
2021/05/28 10:14:11;;;;;;;3.72;1.30;;;;;;;19.84;42.74;97137.28;4972063;28;20039;-62
2021/05/28 10:16:37;;;;;;;7.07;2.38;;;;;;;20.09;41.97;97145.28;4973835;28;20081;-61
2021/05/28 10:19:04;;;;;;;4.82;1.67;;;;;;;20.06;41.57;97140.59;4975227;28;20054;-59
2021/05/28 10:21:29;;;;;;;2.80;1.70;;;;;;;20.28;41.49;97131.94;4972319;28;20043;-61
2021/05/28 10:23:56;;;;;;;2.83;1.30;;;;;;;19.84;41.47;97138.09;4980673;28;20038;-60
2021/05/28 10:26:27;;;;;;;2.17;1.20;;;;;;;19.68;42.40;97135.13;4975309;28;20192;-61
2021/05/28 10:28:53;;;;;;;8.90;4.07;;;;;;;19.91;42.21;97130.84;4979573;28;20100;-61
2021/05/28 10:31:18;;;;;;;4.57;1.65;;;;;;;19.56;42.97;97130.88;4964575;28;20046;-60
2021/05/28 10:33:49;;;;;;;4.55;1.33;;;;;;;19.58;42.77;97138.81;4985264;28;20423;-61
2021/05/28 10:36:43;;;;;;;2.72;1.30;;;;;;;19.51;42.59;97122.22;4981013;28;20093;-61
2021/05/28 10:39:10;;;;;;;3.33;1.67;;;;;;;19.70;41.84;97129.13;4979072;28;20061;-62
2021/05/28 10:41:39;;;;;;;3.33;1.10;;;;;;;19.64;41.79;97131.56;4984070;28;20038;-61
2021/05/28 10:44:07;;;;;;;2.70;1.00;;;;;;;19.71;42.01;97127.94;4974267;28;20380;-62
2021/05/28 10:46:33;;;;;;;3.47;1.73;;;;;;;19.17;42.87;97129.34;4992476;28;20042;-61
2021/05/28 10:48:58;;;;;;;7.20;1.13;;;;;;;18.87;43.37;97133.63;4982317;28;20059;-61
2021/05/28 10:51:29;;;;;;;3.45;1.20;;;;;;;19.19;43.47;97123.38;4978553;28;20491;-61
2021/05/28 10:53:55;;;;;;;2.35;1.15;;;;;;;19.53;43.02;97123.38;4982882;28;20495;-61
2021/05/28 10:56:35;;;;;;;5.50;1.13;;;;;;;19.68;41.94;97124.78;4978249;28;20050;-61
2021/05/28 10:59:11;;;;;;;4.38;1.27;;;;;;;19.71;41.84;97123.16;4980729;28;20297;-61
2021/05/28 11:01:42;;;;;;;3.67;1.40;;;;;;;19.65;42.89;97122.03;4975879;28;20065;-61
2021/05/28 11:04:09;;;;;;;3.60;1.77;;;;;;;19.21;42.32;97116.22;4977585;28;20043;-61
2021/05/28 11:06:56;;;;;;;2.65;1.23;;;;;;;19.35;42.12;97114.47;4980763;28;20124;-61
2021/05/28 11:09:38;;;;;;;6.55;1.70;;;;;;;19.43;44.32;97113.19;4951048;28;20050;-60
2021/05/28 11:12:07;;;;;;;6.00;2.30;;;;;;;20.09;41.12;97111.91;4976662;28;20047;-61
2021/05/28 11:14:35;;;;;;;5.30;1.48;;;;;;;20.76;40.93;97108.50;4984586;28;20046;-62
2021/05/28 11:17:03;;;;;;;1.95;1.30;;;;;;;20.34;40.45;97100.41;4985378;28;20050;-61
2021/05/28 11:19:45;;;;;;;3.08;1.30;;;;;;;20.13;40.67;97100.75;4979656;28;20042;-61
2021/05/28 11:22:40;;;;;;;3.80;1.10;;;;;;;20.08;40.29;97102.03;4978372;28;20046;-60
2021/05/28 11:25:15;;;;;;;5.78;1.30;;;;;;;20.07;41.57;97089.31;4964837;28;20057;-60
2021/05/28 11:27:43;;;;;;;4.03;1.40;;;;;;;19.83;42.26;97088.50;4982040;28;20508;-60
2021/05/28 11:30:09;;;;;;;3.20;1.10;;;;;;;19.72;42.69;97087.81;4959033;28;20664;-58
2021/05/28 11:32:44;;;;;;;3.30;1.23;;;;;;;19.79;41.66;97077.41;4962191;28;20045;-57
2021/05/28 11:35:21;;;;;;;6.68;3.90;;;;;;;19.46;41.87;97081.78;4956952;28;20297;-61